Time;durP1;ratioP1;P1;durP2;ratioP2;P2;SDS_P1;SDS_P2;PMS_P1;PMS_P2;Temp;Humidity;BMP_temperature;BMP_pressure;BME280_temperature;BME280_humidity;BME280_pressure;Samples;Min_cycle;Max_cycle;Signal;HPM_P1;HPM_P2
2023/03/26 00:01:32;;;;;;;11.15;1.95;;;;;;;9.46;46.78;100387.66;5016049;28;20482;-83
2023/03/26 00:04:04;;;;;;;7.03;1.95;;;;;;;9.46;46.33;100386.81;5013747;28;20093;-83
2023/03/26 00:06:37;;;;;;;7.68;2.20;;;;;;;9.44;46.48;100391.53;5011119;28;20056;-82
2023/03/26 00:09:08;;;;;;;7.30;2.40;;;;;;;9.44;46.56;100402.47;5007440;28;20053;-83
2023/03/26 00:11:36;;;;;;;5.40;2.00;;;;;;;9.41;46.33;100398.13;5015212;28;20057;-83
2023/03/26 00:14:05;;;;;;;6.55;2.15;;;;;;;9.41;46.44;100397.28;5019746;28;20153;-83
2023/03/26 00:16:33;;;;;;;8.52;2.28;;;;;;;9.40;46.27;100395.56;5011189;28;20042;-84
2023/03/26 00:19:02;;;;;;;7.25;1.70;;;;;;;9.39;46.09;100400.16;5017913;28;20133;-85
2023/03/26 00:21:31;;;;;;;9.55;2.13;;;;;;;9.37;46.35;100398.53;5019486;28;20113;-83
2023/03/26 00:24:03;;;;;;;5.10;1.67;;;;;;;9.37;46.05;100407.59;5015439;28;20045;-84
2023/03/26 00:26:32;;;;;;;6.72;2.08;;;;;;;9.34;46.06;100399.66;5017684;28;20053;-84
2023/03/26 00:29:02;;;;;;;8.52;2.40;;;;;;;9.33;46.24;100392.47;5016610;28;20436;-83
2023/03/26 00:31:34;;;;;;;12.07;2.25;;;;;;;9.32;46.21;100389.91;5009439;28;20054;-84
2023/03/26 00:34:04;;;;;;;8.53;2.40;;;;;;;9.30;46.35;100392.75;5007479;28;20038;-84
2023/03/26 00:36:34;;;;;;;8.77;2.60;;;;;;;9.31;46.29;100382.69;5011490;28;20051;-83
2023/03/26 00:39:04;;;;;;;9.35;2.30;;;;;;;9.29;46.37;100382.84;5015862;28;20107;-83
2023/03/26 00:41:35;;;;;;;8.95;2.33;;;;;;;9.27;46.46;100376.63;5011187;28;20408;-84
2023/03/26 00:44:04;;;;;;;7.87;2.17;;;;;;;9.26;46.60;100382.22;5013358;28;20168;-84
2023/03/26 00:46:32;;;;;;;9.23;2.17;;;;;;;9.27;46.46;100371.16;5010263;28;20045;-84
2023/03/26 00:49:02;;;;;;;9.95;2.45;;;;;;;9.27;46.32;100381.22;5017447;28;20702;-84
2023/03/26 00:51:33;;;;;;;8.40;2.25;;;;;;;9.26;46.26;100368.56;5013887;28;20402;-84
2023/03/26 00:54:01;;;;;;;6.38;2.30;;;;;;;9.24;46.38;100370.59;5018237;28;20073;-84
2023/03/26 00:56:29;;;;;;;11.07;2.10;;;;;;;9.24;46.50;100376.94;5011526;28;20548;-84
2023/03/26 00:58:59;;;;;;;7.75;1.95;;;;;;;9.24;46.43;100367.88;5017808;28;20072;-83
2023/03/26 01:01:29;;;;;;;9.02;2.60;;;;;;;9.24;46.65;100363.28;5008678;28;20163;-84
2023/03/26 01:03:58;;;;;;;6.43;2.35;;;;;;;9.24;46.51;100362.41;5016193;28;20056;-84
2023/03/26 01:06:34;;;;;;;9.13;2.15;;;;;;;9.23;46.58;100356.09;5018333;28;20347;-84
2023/03/26 01:09:12;;;;;;;7.07;2.05;;;;;;;9.22;46.56;100346.16;5005196;28;20053;-83
2023/03/26 01:11:43;;;;;;;7.95;1.92;;;;;;;9.22;46.35;100345.28;5010500;28;20076;-83
2023/03/26 01:14:13;;;;;;;7.35;2.13;;;;;;;9.23;46.19;100341.56;5013670;28;20045;-84
2023/03/26 01:16:48;;;;;;;6.85;1.73;;;;;;;9.24;46.69;100340.56;5014650;28;20057;-83
2023/03/26 01:19:23;;;;;;;12.10;3.42;;;;;;;9.24;46.75;100335.09;5015160;28;20076;-84
2023/03/26 01:21:53;;;;;;;10.88;2.10;;;;;;;9.24;46.52;100335.09;5016183;28;20049;-84
2023/03/26 01:24:22;;;;;;;8.80;2.58;;;;;;;9.24;46.58;100324.19;5009837;28;20057;-84
2023/03/26 01:27:09;;;;;;;8.05;2.17;;;;;;;9.24;46.79;100318.72;5009566;28;20282;-84
2023/03/26 01:29:51;;;;;;;9.60;2.15;;;;;;;9.22;46.60;100313.41;5011730;28;20048;-84
2023/03/26 01:32:29;;;;;;;7.07;1.95;;;;;;;9.23;46.95;100317.00;5022014;28;20107;-84
2023/03/26 01:35:13;;;;;;;10.60;2.72;;;;;;;9.23;46.76;100314.25;5006682;28;20065;-84
2023/03/26 01:37:52;;;;;;;9.82;2.22;;;;;;;9.21;46.86;100311.66;5024666;28;20084;-84
2023/03/26 01:40:26;;;;;;;7.60;2.13;;;;;;;9.21;46.80;100310.81;5012420;28;20056;-84
2023/03/26 01:42:58;;;;;;;8.65;2.88;;;;;;;9.21;46.54;100306.19;5013356;28;20109;-84
2023/03/26 01:45:32;;;;;;;5.63;1.92;;;;;;;9.20;46.92;100301.75;5014771;28;20564;-84
2023/03/26 01:48:00;;;;;;;7.50;2.03;;;;;;;9.20;46.49;100298.16;5016774;28;20057;-84
2023/03/26 01:50:28;;;;;;;9.13;2.30;;;;;;;9.19;46.65;100300.00;5017178;28;20151;-84
2023/03/26 01:52:56;;;;;;;6.80;2.10;;;;;;;9.19;46.85;100290.97;5032371;28;20104;-84
2023/03/26 01:55:33;;;;;;;6.90;2.00;;;;;;;9.22;46.96;100296.16;5019932;28;20041;-84
2023/03/26 01:58:10;;;;;;;6.60;2.20;;;;;;;9.22;47.33;100287.97;5022301;28;20053;-84
2023/03/26 02:00:45;;;;;;;8.77;2.33;;;;;;;9.19;47.26;100280.91;5023577;28;20208;-84
2023/03/26 02:03:22;;;;;;;8.77;2.10;;;;;;;9.19;46.95;100275.44;5023139;28;20453;-84
2023/03/26 02:05:57;;;;;;;7.85;2.08;;;;;;;9.19;47.37;100278.16;5020826;28;20128;-84
2023/03/26 02:08:34;;;;;;;8.30;2.17;;;;;;;9.20;47.05;100277.16;5030095;28;20060;-84
2023/03/26 02:11:09;;;;;;;6.85;1.95;;;;;;;9.18;46.83;100273.72;5020839;28;20045;-85
2023/03/26 02:13:39;;;;;;;8.20;2.15;;;;;;;9.17;46.97;100271.97;5028695;28;20038;-84
2023/03/26 02:16:10;;;;;;;7.43;1.83;;;;;;;9.17;46.83;100274.72;5018502;28;20057;-84
2023/03/26 02:18:38;;;;;;;7.82;2.17;;;;;;;9.16;46.93;100263.94;5027680;28;20105;-84
2023/03/26 02:21:11;;;;;;;10.25;2.13;;;;;;;9.17;47.29;100261.06;5015839;28;20083;-83
2023/03/26 02:23:41;;;;;;;6.97;1.98;;;;;;;9.15;46.99;100256.75;5020592;28;20041;-84
2023/03/26 02:26:11;;;;;;;8.30;1.90;;;;;;;9.16;46.93;100255.75;5016601;28;20077;-84
2023/03/26 02:28:51;;;;;;;9.10;2.40;;;;;;;9.12;47.10;100248.84;5024167;28;20092;-84
2023/03/26 02:31:20;;;;;;;8.60;2.50;;;;;;;9.13;46.85;100245.13;5020345;28;20060;-83
2023/03/26 02:33:48;;;;;;;8.63;2.20;;;;;;;9.13;47.40;100235.06;5015564;28;20619;-83
2023/03/26 02:36:20;;;;;;;8.80;2.25;;;;;;;9.13;47.31;100231.47;5017011;28;20073;-83
2023/03/26 02:38:49;;;;;;;6.90;2.50;;;;;;;9.09;47.51;100226.28;5018875;28;20050;-83
2023/03/26 02:41:18;;;;;;;6.47;2.28;;;;;;;9.12;47.17;100225.13;5015052;28;20107;-83
2023/03/26 02:44:07;;;;;;;6.90;2.03;;;;;;;9.10;47.32;100224.41;5021281;28;20427;-84
2023/03/26 02:47:10;;;;;;;8.80;2.30;;;;;;;9.06;47.40;100220.25;4976107;28;20047;-83
2023/03/26 02:49:54;;;;;;;9.60;2.83;;;;;;;9.05;47.49;100211.19;5008409;28;20053;-83
2023/03/26 02:52:41;;;;;;;7.68;2.03;;;;;;;9.06;47.60;100204.72;5022100;28;20100;-83
2023/03/26 02:55:09;;;;;;;6.72;2.00;;;;;;;9.06;47.37;100204.72;5018046;28;20069;-83
2023/03/26 02:57:41;;;;;;;5.95;2.08;;;;;;;9.07;47.02;100200.13;5019809;28;20042;-83
2023/03/26 03:00:20;;;;;;;8.00;2.70;;;;;;;9.03;47.37;100194.09;5018025;28;20053;-83
2023/03/26 03:02:56;;;;;;;7.20;2.00;;;;;;;9.02;47.26;100183.31;5021127;28;20052;-83
2023/03/26 03:05:30;;;;;;;8.52;2.10;;;;;;;9.00;47.31;100185.34;5015493;28;20501;-83
2023/03/26 03:08:26;;;;;;;6.10;2.08;;;;;;;8.96;47.33;100182.00;5021262;28;20045;-84
2023/03/26 03:11:16;;;;;;;8.68;2.05;;;;;;;8.93;47.49;100176.81;5021386;28;20072;-83
2023/03/26 03:13:47;;;;;;;7.70;2.35;;;;;;;8.91;47.20;100167.06;5016935;28;20042;-83
2023/03/26 03:16:19;;;;;;;;;;;;;;;8.65;48.03;100161.25;5011730;28;20104;-83
2023/03/26 03:18:52;;;;;;;6.78;2.00;;;;;;;8.83;47.43;100166.91;5010653;28;19932;-84
2023/03/26 03:21:23;;;;;;;5.93;1.92;;;;;;;8.84;47.54;100161.28;5018071;28;20120;-83
2023/03/26 03:23:51;;;;;;;6.15;1.88;;;;;;;8.83;47.47;100158.72;5020071;28;20056;-83
2023/03/26 03:26:21;;;;;;;4.80;1.73;;;;;;;8.81;47.10;100156.13;5020329;28;20160;-83
2023/03/26 03:28:56;;;;;;;10.30;2.30;;;;;;;8.80;47.53;100161.72;5021958;28;20052;-83
2023/03/26 03:31:25;;;;;;;8.98;2.00;;;;;;;8.79;47.15;100149.06;5020643;28;20130;-83
2023/03/26 03:33:59;;;;;;;7.55;2.25;;;;;;;8.75;47.42;100151.25;5020790;28;20041;-83
2023/03/26 03:36:31;;;;;;;10.38;2.15;;;;;;;8.75;47.26;100148.50;5021452;28;20077;-83
2023/03/26 03:39:09;;;;;;;7.10;1.73;;;;;;;8.76;47.46;100143.88;5009007;28;20038;-83
2023/03/26 03:41:37;;;;;;;7.70;2.10;;;;;;;8.75;47.46;100143.06;5015767;28;20051;-83
2023/03/26 03:44:12;;;;;;;5.28;1.70;;;;;;;8.76;47.50;100141.16;5024508;28;20080;-83
2023/03/26 03:46:40;;;;;;;8.18;2.28;;;;;;;8.75;47.53;100136.75;5012391;28;20217;-83
2023/03/26 03:49:08;;;;;;;6.82;1.88;;;;;;;8.75;47.45;100132.16;5016300;28;20046;-83
2023/03/26 03:51:37;;;;;;;6.63;2.00;;;;;;;8.75;47.41;100131.28;5020657;28;20061;-83
2023/03/26 03:54:34;;;;;;;8.57;2.40;;;;;;;8.74;47.77;100132.28;5013748;28;20053;-83
2023/03/26 03:57:10;;;;;;;7.55;1.88;;;;;;;8.75;47.53;100134.00;5018886;28;20110;-83
2023/03/26 03:59:43;;;;;;;6.78;1.80;;;;;;;8.77;47.50;100126.53;5024441;28;20261;-83
2023/03/26 04:02:24;;;;;;;6.80;1.80;;;;;;;8.76;47.88;100122.94;5021043;28;20053;-83
2023/03/26 04:04:57;;;;;;;6.50;1.98;;;;;;;8.76;48.03;100125.66;5020704;28;20046;-83
2023/03/26 04:07:29;;;;;;;7.97;2.20;;;;;;;8.78;47.66;100122.78;5017269;28;20057;-83
2023/03/26 04:10:09;;;;;;;6.82;1.90;;;;;;;8.78;47.74;100115.47;5015152;28;20436;-83
2023/03/26 04:12:57;;;;;;;6.18;1.75;;;;;;;8.76;48.11;100111.16;5018972;28;20091;-83
2023/03/26 04:15:53;;;;;;;5.45;1.70;;;;;;;8.78;47.86;100104.56;5004959;28;20053;-83
2023/03/26 04:18:23;;;;;;;5.70;1.63;;;;;;;8.78;47.79;100100.97;5015316;28;20076;-83
2023/03/26 04:20:51;;;;;;;5.93;2.00;;;;;;;8.77;47.65;100099.25;5017035;28;20517;-83
2023/03/26 04:23:25;;;;;;;6.50;1.98;;;;;;;8.76;47.60;100097.50;5024145;28;20108;-83
2023/03/26 04:26:17;;;;;;;7.10;1.85;;;;;;;8.76;48.02;100087.47;5020435;28;20049;-83
2023/03/26 04:29:04;;;;;;;5.57;1.70;;;;;;;8.75;48.01;100084.91;5019652;28;20061;-82
2023/03/26 04:31:35;;;;;;;7.30;1.67;;;;;;;8.74;47.68;100081.31;5016347;28;20133;-83
2023/03/26 04:34:07;;;;;;;5.07;1.77;;;;;;;8.74;48.08;100081.31;5022590;28;20063;-83
2023/03/26 04:36:45;;;;;;;7.55;1.83;;;;;;;8.73;47.88;100073.25;5022061;28;20049;-83
2023/03/26 04:39:14;;;;;;;5.75;1.70;;;;;;;8.73;47.98;100068.66;5015398;28;20133;-82
2023/03/26 04:42:00;;;;;;;8.57;2.10;;;;;;;8.70;48.14;100061.63;5005692;28;20107;-82
2023/03/26 04:44:37;;;;;;;4.82;1.75;;;;;;;8.70;48.32;100058.88;5010173;28;20112;-83
2023/03/26 04:47:10;;;;;;;6.68;2.25;;;;;;;8.69;48.04;100054.44;5018000;28;20037;-83
2023/03/26 04:49:46;;;;;;;6.93;1.90;;;;;;;8.69;48.40;100054.44;5019249;28;20042;-83
2023/03/26 04:52:15;;;;;;;7.13;2.15;;;;;;;8.69;48.36;100046.25;5012433;28;20057;-82
2023/03/26 04:55:02;;;;;;;7.68;2.30;;;;;;;8.67;48.16;100042.78;5021001;28;20067;-83
2023/03/26 04:57:37;;;;;;;9.35;2.20;;;;;;;8.71;48.61;100036.06;5022412;28;20456;-83
2023/03/26 05:00:18;;;;;;;5.43;1.90;;;;;;;8.70;48.60;100028.88;5015654;28;20515;-82
2023/03/26 05:02:58;;;;;;;6.50;1.98;;;;;;;8.70;47.97;100030.75;5013897;28;20641;-82
2023/03/26 05:05:27;;;;;;;9.27;1.90;;;;;;;8.70;48.62;100025.28;5021276;28;20128;-83
2023/03/26 05:07:57;;;;;;;9.48;2.50;;;;;;;8.68;48.25;100021.84;5018118;28;20120;-82
2023/03/26 05:10:26;;;;;;;6.15;2.00;;;;;;;8.68;48.65;100030.03;5017454;28;20037;-82
2023/03/26 05:13:02;;;;;;;6.25;1.85;;;;;;;8.67;48.50;100029.16;5019232;28;20146;-83
2023/03/26 05:15:34;;;;;;;6.23;2.00;;;;;;;8.65;48.38;100020.28;5014103;28;20049;-83
2023/03/26 05:18:24;;;;;;;5.20;1.80;;;;;;;8.67;48.92;100025.59;5013336;28;20288;-83
2023/03/26 05:20:54;;;;;;;8.70;2.05;;;;;;;8.66;48.56;100022.00;5011628;28;20068;-83
2023/03/26 05:23:23;;;;;;;5.95;1.80;;;;;;;8.65;48.30;100016.69;5013428;28;20038;-82
2023/03/26 05:26:00;;;;;;;4.78;2.03;;;;;;;8.64;48.45;100013.09;5004719;28;20504;-82
2023/03/26 05:28:28;;;;;;;5.57;2.20;;;;;;;8.63;48.72;100008.66;5012555;28;20045;-82
2023/03/26 05:31:05;;;;;;;5.00;2.10;;;;;;;8.62;48.46;100006.91;5017519;28;20069;-82
2023/03/26 05:33:39;;;;;;;6.65;1.80;;;;;;;8.61;48.61;100001.59;5031530;28;20076;-82
2023/03/26 05:36:14;;;;;;;8.35;1.90;;;;;;;8.60;48.68;99995.28;5026748;28;20058;-82
2023/03/26 05:38:51;;;;;;;5.50;1.70;;;;;;;8.60;48.66;99987.09;5020197;28;20041;-82
2023/03/26 05:41:39;;;;;;;6.82;1.70;;;;;;;8.58;48.97;99986.41;5014023;28;20561;-82
2023/03/26 05:44:07;;;;;;;5.40;1.70;;;;;;;8.59;48.77;99985.38;5028365;28;20046;-82
2023/03/26 05:47:26;;;;;;;5.63;1.90;;;;;;;8.56;49.76;99977.50;5018677;28;20038;-83
2023/03/26 05:49:55;;;;;;;7.45;1.85;;;;;;;8.56;48.94;99971.19;5041948;28;20055;-83
2023/03/26 05:52:23;;;;;;;7.15;1.80;;;;;;;8.56;48.91;99972.03;5025865;28;20126;-82
2023/03/26 05:55:33;;;;;;;7.28;1.85;;;;;;;8.54;48.77;99965.84;5007164;28;20205;-83
2023/03/26 05:58:20;;;;;;;6.65;1.85;;;;;;;8.54;48.70;99959.53;5011203;28;20056;-83
2023/03/26 06:01:16;;;;;;;6.15;2.00;;;;;;;8.55;48.62;99961.28;4994531;28;20046;-83
2023/03/26 06:04:05;;;;;;;7.28;1.95;;;;;;;8.54;48.99;99954.94;5003635;28;20046;-83
2023/03/26 06:06:40;;;;;;;8.05;2.30;;;;;;;8.56;48.84;99955.69;5019554;28;20057;-83
2023/03/26 06:09:08;;;;;;;6.28;1.95;;;;;;;8.56;49.22;99946.63;5026067;28;20081;-82
2023/03/26 06:11:35;;;;;;;5.68;1.90;;;;;;;8.55;49.14;99942.19;5015988;28;20064;-83
2023/03/26 06:14:04;;;;;;;7.72;1.80;;;;;;;8.56;49.01;99941.19;5019109;28;20074;-82
2023/03/26 06:16:33;;;;;;;5.03;1.92;;;;;;;8.55;49.23;99936.72;5025832;28;20056;-82
2023/03/26 06:19:31;;;;;;;7.07;2.40;;;;;;;8.54;49.14;99932.28;5013199;28;20053;-82
2023/03/26 06:22:09;;;;;;;8.65;2.08;;;;;;;8.55;48.91;99939.44;5024947;28;20049;-82
2023/03/26 06:25:00;;;;;;;6.82;2.10;;;;;;;8.50;49.25;99929.00;5017334;28;20053;-82
2023/03/26 06:27:49;;;;;;;7.28;2.10;;;;;;;8.53;49.14;99925.09;5008654;28;20141;-83
2023/03/26 06:30:35;;;;;;;7.28;1.92;;;;;;;8.53;48.96;99919.63;5016043;28;20116;-83
2023/03/26 06:33:16;;;;;;;6.25;1.90;;;;;;;8.52;49.41;99916.03;5029001;28;20049;-83
2023/03/26 06:35:48;;;;;;;6.35;2.10;;;;;;;8.53;49.61;99914.19;5020195;28;20165;-83
2023/03/26 06:38:18;;;;;;;5.43;2.03;;;;;;;8.54;49.36;99902.28;5014932;28;20096;-82
2023/03/26 06:40:46;;;;;;;6.78;2.05;;;;;;;8.52;49.41;99899.69;5015594;28;20104;-82
2023/03/26 06:43:26;;;;;;;8.05;2.67;;;;;;;8.52;49.49;99901.53;5015710;28;20073;-83
2023/03/26 06:46:13;;;;;;;4.07;1.83;;;;;;;8.51;49.58;99902.53;5016312;28;20108;-83
2023/03/26 06:48:59;;;;;;;6.45;1.70;;;;;;;8.48;49.45;99901.00;5015278;28;20072;-83
2023/03/26 06:51:49;;;;;;;6.50;1.98;;;;;;;8.46;49.64;99889.38;5012772;28;20062;-84
2023/03/26 06:54:43;;;;;;;5.53;1.77;;;;;;;8.47;49.46;99887.50;5018214;28;20046;-83
2023/03/26 06:57:44;;;;;;;6.82;1.95;;;;;;;8.43;49.26;99880.59;4994240;28;20042;-84
2023/03/26 07:00:38;;;;;;;9.02;2.42;;;;;;;8.43;49.50;99875.13;5021878;28;20057;-83
2023/03/26 07:03:25;;;;;;;6.03;1.98;;;;;;;8.40;49.52;99876.31;5014262;28;20200;-83
2023/03/26 07:06:11;;;;;;;5.75;2.30;;;;;;;8.38;49.94;99872.88;5019123;28;20069;-83
2023/03/26 07:08:57;;;;;;;7.03;2.03;;;;;;;8.36;49.36;99871.28;5015371;28;20072;-83
2023/03/26 07:11:29;;;;;;;5.85;2.20;;;;;;;8.36;49.56;99869.41;5018955;28;20494;-83
2023/03/26 07:14:33;;;;;;;7.20;2.10;;;;;;;8.30;49.87;99868.13;4997465;28;20081;-83
2023/03/26 07:17:19;;;;;;;6.50;2.05;;;;;;;8.28;49.94;99870.13;5010410;28;20480;-82
2023/03/26 07:20:13;;;;;;;5.40;1.85;;;;;;;8.26;50.33;99869.41;5015013;28;20057;-83
2023/03/26 07:22:42;;;;;;;6.30;2.10;;;;;;;8.27;50.47;99871.13;5016258;28;20497;-83
2023/03/26 07:25:17;;;;;;;6.10;2.10;;;;;;;8.28;50.38;99872.84;5025566;28;20060;-83
2023/03/26 07:28:13;;;;;;;5.07;2.03;;;;;;;8.30;51.39;99873.59;5018889;28;20046;-83
2023/03/26 07:31:25;;;;;;;6.15;2.60;;;;;;;8.31;51.60;99869.00;5013550;28;20057;-83
2023/03/26 07:34:21;;;;;;;6.47;2.10;;;;;;;8.31;51.21;99864.41;5023132;28;20037;-83
2023/03/26 07:37:12;;;;;;;5.78;1.95;;;;;;;8.34;51.18;99855.09;5019637;28;20057;-83
2023/03/26 07:39:59;;;;;;;4.90;2.00;;;;;;;8.36;51.10;99858.50;5011455;28;20041;-83
2023/03/26 07:43:01;;;;;;;6.00;2.00;;;;;;;8.36;51.30;99847.59;5046468;22;20077;-80
2023/03/26 07:46:03;;;;;;;5.90;2.38;;;;;;;8.34;50.97;99850.47;5032600;28;20053;-78
2023/03/26 07:48:57;;;;;;;4.30;1.90;;;;;;;8.35;50.76;99840.41;5039564;28;20457;-80
2023/03/26 07:51:36;;;;;;;5.90;1.90;;;;;;;8.35;50.94;99832.25;5056770;28;20122;-79
2023/03/26 07:54:16;;;;;;;7.22;2.42;;;;;;;8.38;50.79;99833.84;5021626;28;20049;-81
2023/03/26 07:57:05;;;;;;;6.55;2.15;;;;;;;8.39;50.97;99833.69;5014598;28;20465;-82
2023/03/26 07:59:57;;;;;;;5.30;2.00;;;;;;;8.40;51.18;99831.81;5025398;28;20049;-80
2023/03/26 08:03:09;;;;;;;5.53;2.08;;;;;;;8.38;51.98;99831.09;5021100;28;20442;-80
2023/03/26 08:06:10;;;;;;;5.55;1.75;;;;;;;8.37;51.38;99840.28;5000976;28;20058;-80
2023/03/26 08:09:02;;;;;;;5.75;1.70;;;;;;;8.36;51.43;99831.25;5028587;28;20448;-80
2023/03/26 08:11:58;;;;;;;8.73;2.60;;;;;;;8.32;51.16;99833.41;5018659;28;20052;-80
2023/03/26 08:14:37;;;;;;;6.78;2.00;;;;;;;8.35;52.39;99834.97;5023312;28;20046;-79
2023/03/26 08:17:11;;;;;;;5.07;1.88;;;;;;;8.34;51.93;99833.28;5019976;28;20057;-81
2023/03/26 08:19:57;;;;;;;4.90;1.80;;;;;;;8.34;52.43;99825.94;5016488;28;20132;-80
2023/03/26 08:22:29;;;;;;;7.28;2.00;;;;;;;8.33;51.69;99823.38;5019856;28;20063;-81
2023/03/26 08:25:12;;;;;;;5.53;1.92;;;;;;;8.34;52.32;99823.19;5012216;28;20048;-79
2023/03/26 08:27:42;;;;;;;5.70;2.10;;;;;;;8.33;51.62;99820.66;5023093;28;20053;-80
2023/03/26 08:30:17;;;;;;;5.53;2.00;;;;;;;8.34;51.74;99819.66;5025247;28;20056;-80
2023/03/26 08:32:52;;;;;;;5.82;2.00;;;;;;;8.36;51.97;99822.19;5049739;28;20111;-80
2023/03/26 08:35:22;;;;;;;5.28;1.73;;;;;;;8.34;51.64;99825.09;5012411;28;20108;-81
2023/03/26 08:37:50;;;;;;;5.53;2.20;;;;;;;8.33;51.49;99820.66;5024354;28;20705;-80
2023/03/26 08:40:33;;;;;;;4.78;1.88;;;;;;;8.35;52.08;99813.16;5020858;28;20132;-81
2023/03/26 08:43:23;;;;;;;;;;;;;;;8.09;52.78;99817.47;5052065;28;20049;-80
2023/03/26 08:46:32;;;;;;;4.90;1.85;;;;;;;8.26;52.77;99814.03;5013148;28;19959;-81
2023/03/26 08:49:15;;;;;;;5.57;1.90;;;;;;;8.32;51.67;99818.94;4997420;28;20144;-80
2023/03/26 08:52:16;;;;;;;4.82;1.85;;;;;;;8.31;52.58;99812.63;5013544;28;20393;-80
2023/03/26 08:54:56;;;;;;;5.90;2.55;;;;;;;8.33;52.08;99812.47;5014809;28;20042;-81
2023/03/26 08:57:55;;;;;;;4.85;1.80;;;;;;;8.31;52.50;99809.88;5006804;28;20522;-80
2023/03/26 09:00:39;;;;;;;6.68;2.00;;;;;;;8.32;52.98;99808.03;5019468;28;20056;-80
2023/03/26 09:03:49;;;;;;;5.60;1.90;;;;;;;8.31;53.30;99803.56;5020010;28;20049;-81
2023/03/26 09:06:36;;;;;;;5.25;1.92;;;;;;;8.30;52.81;99808.16;5029663;28;20109;-81
2023/03/26 09:09:39;;;;;;;5.35;1.92;;;;;;;8.30;52.96;99801.84;5019752;28;20541;-81
2023/03/26 09:12:49;;;;;;;5.25;1.92;;;;;;;8.23;52.83;99798.84;5044687;28;20495;-81
2023/03/26 09:15:51;;;;;;;4.93;1.55;;;;;;;8.29;52.42;99811.03;5028815;28;20112;-82
2023/03/26 09:18:57;;;;;;;4.35;1.88;;;;;;;8.28;52.56;99807.44;5030527;28;20053;-81
2023/03/26 09:22:05;;;;;;;4.82;1.67;;;;;;;8.25;52.54;99798.72;5027570;28;20064;-81
2023/03/26 09:24:57;;;;;;;4.32;1.52;;;;;;;8.25;52.42;99796.84;5025879;28;20121;-82
2023/03/26 09:27:39;;;;;;;2.85;1.33;;;;;;;8.23;51.84;99793.41;5026593;28;20103;-80
2023/03/26 09:30:32;;;;;;;4.13;1.48;;;;;;;8.22;52.29;99788.94;5031620;28;20045;-81
2023/03/26 09:33:28;;;;;;;3.67;1.40;;;;;;;8.22;52.12;99793.53;5025658;28;20485;-82
2023/03/26 09:36:21;;;;;;;4.55;1.50;;;;;;;8.23;51.94;99787.94;5068565;28;20050;-81
2023/03/26 09:38:56;;;;;;;4.78;1.30;;;;;;;8.19;51.58;99781.06;5014596;28;20073;-81
2023/03/26 09:41:36;;;;;;;4.07;1.33;;;;;;;8.22;51.70;99786.22;5020919;28;20049;-79
2023/03/26 09:44:39;;;;;;;3.90;1.30;;;;;;;8.17;51.92;99777.63;5021801;28;20048;-80
2023/03/26 09:48:04;;;;;;;4.03;1.37;;;;;;;8.14;51.96;99777.06;5057577;28;20069;-79
2023/03/26 09:50:51;;;;;;;3.88;1.40;;;;;;;8.15;51.81;99778.78;5018649;28;20084;-79
2023/03/26 09:53:40;;;;;;;4.45;2.10;;;;;;;8.14;52.33;99772.47;5024925;28;20068;-81
2023/03/26 09:56:37;;;;;;;5.72;1.80;;;;;;;8.15;52.41;99776.91;5020369;28;20050;-81
2023/03/26 09:59:56;;;;;;;2.92;1.45;;;;;;;8.07;52.56;99762.25;5032859;28;20038;-80
2023/03/26 10:02:50;;;;;;;2.97;1.17;;;;;;;8.09;52.06;99769.28;4953527;28;20060;-79
2023/03/26 10:05:28;;;;;;;2.53;1.15;;;;;;;8.09;51.77;99772.00;4917155;29;20047;-81
2023/03/26 10:08:28;;;;;;;2.50;1.35;;;;;;;8.09;51.57;99766.56;5003414;28;20041;-82
2023/03/26 10:11:09;;;;;;;2.63;1.10;;;;;;;8.06;51.38;99763.25;5019472;28;20133;-83
2023/03/26 10:13:51;;;;;;;5.10;1.25;;;;;;;8.07;51.64;99764.97;5024229;28;20033;-81
2023/03/26 10:16:30;;;;;;;3.03;1.33;;;;;;;8.04;51.61;99757.94;5015653;28;20487;-81
2023/03/26 10:19:18;;;;;;;2.40;1.35;;;;;;;8.04;51.44;99757.09;5022765;28;20046;-81
2023/03/26 10:21:55;;;;;;;1.90;1.02;;;;;;;8.02;51.37;99750.91;5036874;28;20168;-80
2023/03/26 10:24:39;;;;;;;3.00;0.95;;;;;;;8.02;51.85;99745.47;5017454;28;20049;-81
2023/03/26 10:27:29;;;;;;;2.60;0.90;;;;;;;7.99;51.56;99741.19;5018782;28;20068;-81
2023/03/26 10:30:25;;;;;;;1.92;0.90;;;;;;;7.94;51.52;99744.31;5020719;28;20080;-81
2023/03/26 10:33:02;;;;;;;1.67;0.77;;;;;;;7.96;51.43;99736.00;5025400;28;20076;-81
2023/03/26 10:35:45;;;;;;;1.88;0.80;;;;;;;7.96;51.35;99738.75;5020700;28;20045;-81
2023/03/26 10:38:27;;;;;;;2.83;0.75;;;;;;;7.92;51.05;99738.19;5026288;28;20069;-81
2023/03/26 10:41:03;;;;;;;1.67;0.80;;;;;;;7.91;51.25;99736.47;5027509;28;20041;-81
2023/03/26 10:44:01;;;;;;;2.35;1.00;;;;;;;7.86;51.69;99726.97;5025557;28;20140;-81
2023/03/26 10:46:58;;;;;;;1.73;0.98;;;;;;;7.84;52.05;99729.88;5022085;28;20327;-81
2023/03/26 10:49:49;;;;;;;3.25;1.00;;;;;;;7.84;52.38;99727.16;5023715;28;20401;-80
2023/03/26 10:52:21;;;;;;;1.90;0.82;;;;;;;7.83;51.48;99713.66;5019987;28;20056;-80
2023/03/26 10:54:55;;;;;;;2.33;0.80;;;;;;;7.82;51.84;99718.25;5025870;28;20077;-80
2023/03/26 10:57:35;;;;;;;2.15;0.82;;;;;;;7.84;52.00;99715.41;5025465;28;20772;-82
2023/03/26 11:00:16;;;;;;;1.88;0.90;;;;;;;7.83;51.99;99708.22;5016198;28;20052;-81
2023/03/26 11:03:00;;;;;;;2.10;0.98;;;;;;;7.83;51.75;99714.53;5021364;28;20097;-81
2023/03/26 11:05:46;;;;;;;1.88;1.00;;;;;;;7.84;51.97;99715.41;5036054;28;20124;-81
2023/03/26 11:08:23;;;;;;;1.25;0.80;;;;;;;7.84;51.69;99718.13;5016590;28;20042;-81
2023/03/26 11:11:05;;;;;;;2.67;0.80;;;;;;;7.84;51.54;99713.53;5018554;28;20061;-81
2023/03/26 11:13:53;;;;;;;1.75;0.95;;;;;;;7.86;51.36;99716.09;5028188;28;20534;-81
2023/03/26 11:16:29;;;;;;;1.58;0.80;;;;;;;7.86;51.57;99703.31;5008224;28;20115;-80
2023/03/26 11:19:04;;;;;;;1.88;0.90;;;;;;;7.87;51.95;99709.63;5018082;28;20457;-81
2023/03/26 11:21:45;;;;;;;2.35;0.90;;;;;;;7.86;51.72;99706.06;5017788;28;20049;-81
2023/03/26 11:24:33;;;;;;;2.08;0.90;;;;;;;7.88;51.77;99714.09;5022235;28;20141;-80
2023/03/26 11:27:08;;;;;;;2.72;1.10;;;;;;;7.86;51.97;99706.06;5025119;28;20076;-81
2023/03/26 11:29:50;;;;;;;2.25;1.10;;;;;;;7.88;51.37;99708.63;5012791;28;20053;-80
2023/03/26 11:32:22;;;;;;;2.05;0.98;;;;;;;7.88;51.38;99692.28;5031827;28;20139;-80
2023/03/26 11:35:01;;;;;;;2.08;0.75;;;;;;;7.87;51.86;99696.00;5027259;28;20038;-80
2023/03/26 11:37:34;;;;;;;2.50;0.90;;;;;;;7.87;51.49;99694.16;5037799;28;20050;-81
2023/03/26 11:40:13;;;;;;;1.90;0.90;;;;;;;7.87;51.55;99694.16;5045041;28;20277;-80
2023/03/26 11:42:43;;;;;;;2.10;1.00;;;;;;;7.86;51.44;99695.16;5027340;28;20049;-81
2023/03/26 11:45:17;;;;;;;2.58;0.90;;;;;;;7.87;51.84;99690.56;5032327;28;20690;-81
2023/03/26 11:47:50;;;;;;;2.28;1.02;;;;;;;7.83;52.01;99687.28;5025905;28;20069;-81
2023/03/26 11:50:25;;;;;;;1.45;0.60;;;;;;;7.84;51.98;99690.88;5028190;28;20053;-81
2023/03/26 11:52:57;;;;;;;1.67;0.90;;;;;;;7.80;52.22;99692.16;5025482;28;20124;-81
2023/03/26 11:55:26;;;;;;;0.88;0.73;;;;;;;7.81;51.70;99696.59;5017279;28;20054;-82
2023/03/26 11:57:58;;;;;;;1.52;0.70;;;;;;;7.81;51.99;99699.31;5030188;28;20045;-81
2023/03/26 12:00:29;;;;;;;2.22;1.00;;;;;;;7.77;52.09;99700.59;5024019;28;20039;-81
2023/03/26 12:02:59;;;;;;;1.38;0.80;;;;;;;7.78;51.81;99689.56;5018650;28;20627;-81
2023/03/26 12:05:47;;;;;;;2.63;0.90;;;;;;;7.81;53.21;99694.75;5023028;28;20072;-81
2023/03/26 12:08:21;;;;;;;2.47;1.00;;;;;;;7.79;53.08;99694.03;5057999;28;20467;-81
2023/03/26 12:11:05;;;;;;;3.20;1.00;;;;;;;7.84;52.53;99688.16;5039147;28;20049;-80
2023/03/26 12:13:37;;;;;;;1.77;0.80;;;;;;;7.80;52.10;99694.88;5019741;28;20041;-82
2023/03/26 12:16:11;;;;;;;2.38;1.00;;;;;;;7.83;52.53;99691.88;5017986;28;20642;-81
2023/03/26 12:18:42;;;;;;;1.48;0.80;;;;;;;7.80;52.64;99692.16;5033010;28;20049;-81
2023/03/26 12:21:13;;;;;;;1.92;0.90;;;;;;;7.81;52.67;99696.59;5018240;28;20046;-81
2023/03/26 12:23:54;;;;;;;1.83;1.00;;;;;;;7.88;53.00;99695.00;5020124;28;20084;-81
2023/03/26 12:26:32;;;;;;;1.55;0.70;;;;;;;7.87;53.28;99693.28;5058372;28;20118;-81
2023/03/26 12:29:08;;;;;;;0.90;0.70;;;;;;;7.90;52.81;99690.28;5016927;28;20046;-81
2023/03/26 12:32:04;;;;;;;1.40;0.70;;;;;;;7.87;53.15;99696.88;5020326;28;20077;-81
2023/03/26 12:34:35;;;;;;;1.52;0.70;;;;;;;7.88;52.14;99687.72;5013464;28;20060;-81
2023/03/26 12:37:06;;;;;;;1.65;0.65;;;;;;;7.92;52.08;99691.88;5023796;28;20528;-81
2023/03/26 12:39:37;;;;;;;2.00;0.88;;;;;;;7.96;52.18;99695.16;5017415;28;20095;-81